createdAt,value
2023-01-05T00:01:27.149Z,28.00
2023-01-05T00:03:54.148Z,26.73
2023-01-05T00:06:21.059Z,29.90
2023-01-05T00:08:48.033Z,30.40
2023-01-05T00:11:41.825Z,27.08
2023-01-05T00:14:41.364Z,26.50
2023-01-05T00:17:29.823Z,28.73
2023-01-05T00:20:15.092Z,25.30
2023-01-05T00:22:50.008Z,27.58
2023-01-05T00:25:23.202Z,32.25
2023-01-05T00:27:51.913Z,30.00
2023-01-05T00:30:21.889Z,24.95
2023-01-05T00:32:49.037Z,29.42
2023-01-05T00:35:16.502Z,31.05
2023-01-05T00:37:45.554Z,24.80
2023-01-05T00:40:16.132Z,25.95
2023-01-05T00:42:43.080Z,22.55
2023-01-05T00:45:12.677Z,29.60
2023-01-05T00:47:39.746Z,27.92
2023-01-05T00:50:07.823Z,27.40
2023-01-05T00:52:35.116Z,26.17
2023-01-05T00:55:04.984Z,26.40
2023-01-05T00:57:31.982Z,28.98
2023-01-05T00:59:58.988Z,25.52
2023-01-05T01:02:26.027Z,24.63
2023-01-05T01:04:52.925Z,23.13
2023-01-05T01:07:19.778Z,25.98
2023-01-05T01:09:46.793Z,24.83
2023-01-05T01:12:13.827Z,27.38
2023-01-05T01:14:40.896Z,25.95
2023-01-05T01:17:08.221Z,29.52
2023-01-05T01:19:39.087Z,29.85
2023-01-05T01:22:06.443Z,27.80
2023-01-05T01:24:37.914Z,27.05
2023-01-05T01:27:12.997Z,24.23
2023-01-05T01:29:40.245Z,20.85
2023-01-05T01:32:07.553Z,19.95
2023-01-05T01:34:40.271Z,19.13
2023-01-05T01:37:07.563Z,19.67
2023-01-05T01:39:43.593Z,20.17
2023-01-05T01:42:14.934Z,18.10
2023-01-05T01:44:52.703Z,17.33
2023-01-05T01:47:29.376Z,16.73
2023-01-05T01:49:58.579Z,18.40
2023-01-05T01:52:27.091Z,21.92
2023-01-05T01:54:54.132Z,16.67
2023-01-05T01:57:21.709Z,16.48
2023-01-05T01:59:48.677Z,15.80
2023-01-05T02:02:15.899Z,18.85
2023-01-05T02:04:46.163Z,19.05
2023-01-05T02:07:17.451Z,16.30
2023-01-05T02:09:44.681Z,18.50
2023-01-05T02:12:57.085Z,18.13
2023-01-05T02:15:25.859Z,19.02
2023-01-05T02:18:04.518Z,16.13
2023-01-05T02:20:54.169Z,19.98
2023-01-05T02:23:45.908Z,23.95
2023-01-05T02:26:16.587Z,17.65
2023-01-05T02:29:01.267Z,18.85
2023-01-05T02:31:37.348Z,25.48
2023-01-05T02:34:20.258Z,21.13
2023-01-05T02:37:11.896Z,20.70
2023-01-05T02:39:52.161Z,23.60
2023-01-05T02:42:26.991Z,21.90
2023-01-05T02:44:54.232Z,23.35
2023-01-05T02:47:27.991Z,22.65
2023-01-05T02:50:17.568Z,20.60
2023-01-05T02:53:06.284Z,21.77
2023-01-05T02:55:38.867Z,18.98
2023-01-05T02:58:24.095Z,22.67
2023-01-05T03:00:54.716Z,19.77
2023-01-05T03:03:31.676Z,18.60
2023-01-05T03:06:09.697Z,22.83
2023-01-05T03:08:43.797Z,26.50
2023-01-05T03:11:30.880Z,24.00
2023-01-05T03:14:06.945Z,22.98
2023-01-05T03:16:38.162Z,23.98
2023-01-05T03:19:28.969Z,19.10
2023-01-05T03:22:15.432Z,19.20
2023-01-05T03:27:50.219Z,20.70
2023-01-05T03:30:40.966Z,21.58
2023-01-05T03:33:42.080Z,23.02
2023-01-05T03:36:09.505Z,21.90
2023-01-05T03:38:45.564Z,30.45
2023-01-05T03:41:15.708Z,26.23
2023-01-05T03:43:44.064Z,20.67
2023-01-05T03:46:19.109Z,22.35
2023-01-05T03:51:13.642Z,23.92
2023-01-05T03:53:40.916Z,22.92
2023-01-05T03:56:07.975Z,22.60
2023-01-05T03:58:35.198Z,24.35
2023-01-05T04:01:02.229Z,24.58
2023-01-05T04:03:32.090Z,22.02
2023-01-05T04:06:02.331Z,22.42
2023-01-05T04:08:31.154Z,19.40
2023-01-05T04:11:19.423Z,20.60
2023-01-05T04:14:00.218Z,24.80
2023-01-05T04:16:28.774Z,22.27
2023-01-05T04:18:58.576Z,19.13
2023-01-05T04:21:26.194Z,22.10
2023-01-05T04:23:55.019Z,22.88
2023-01-05T04:26:23.008Z,22.23
2023-01-05T04:28:50.814Z,25.67
2023-01-05T04:31:20.295Z,21.38
2023-01-05T04:33:48.508Z,21.70
2023-01-05T04:36:19.274Z,21.45
2023-01-05T04:38:46.327Z,24.10
2023-01-05T04:41:13.974Z,20.02
2023-01-05T04:43:45.415Z,22.42
2023-01-05T04:48:42.783Z,19.48
2023-01-05T04:51:10.636Z,21.63
2023-01-05T04:53:38.876Z,17.63
2023-01-05T04:56:08.512Z,18.95
2023-01-05T04:58:39.921Z,21.63
2023-01-05T05:01:07.809Z,23.77
2023-01-05T05:03:36.365Z,19.65
2023-01-05T05:06:06.301Z,21.17
2023-01-05T05:08:33.276Z,21.08
2023-01-05T05:11:02.272Z,19.30
2023-01-05T05:13:31.419Z,19.58
2023-01-05T05:16:03.086Z,22.25
2023-01-05T05:18:31.126Z,20.90
2023-01-05T05:20:58.579Z,22.95
2023-01-05T05:23:30.122Z,19.60
2023-01-05T05:25:58.761Z,19.63
2023-01-05T05:28:28.425Z,21.30
2023-01-05T05:30:56.516Z,21.15
2023-01-05T05:33:24.556Z,19.08
2023-01-05T05:35:51.608Z,20.95
2023-01-05T05:38:18.649Z,20.27
2023-01-05T05:40:45.632Z,25.38
2023-01-05T05:43:12.519Z,23.08
2023-01-05T05:45:40.221Z,24.85
2023-01-05T05:48:09.390Z,25.77
2023-01-05T05:50:36.303Z,20.17
2023-01-05T05:53:06.474Z,21.38
2023-01-05T05:55:35.078Z,21.00
2023-01-05T05:58:01.905Z,23.13
2023-01-05T06:00:28.938Z,20.05
2023-01-05T06:02:56.121Z,24.27
2023-01-05T06:05:23.064Z,22.63
2023-01-05T06:07:49.980Z,21.80
2023-01-05T06:10:16.795Z,22.42
2023-01-05T06:12:43.769Z,20.65
2023-01-05T06:15:11.460Z,20.30
2023-01-05T06:17:38.326Z,17.23
2023-01-05T06:20:06.109Z,16.60
2023-01-05T06:22:32.908Z,26.52
2023-01-05T06:24:59.659Z,26.15
2023-01-05T06:27:26.497Z,20.33
2023-01-05T06:29:53.366Z,21.17
2023-01-05T06:32:20.197Z,24.50
2023-01-05T06:34:47.301Z,21.40
2023-01-05T06:37:14.242Z,20.88
2023-01-05T06:39:41.162Z,17.15
2023-01-05T06:42:08.031Z,20.85
2023-01-05T06:44:34.868Z,18.75
2023-01-05T06:47:01.863Z,21.30
2023-01-05T06:49:28.730Z,22.30
2023-01-05T06:51:55.877Z,20.30
2023-01-05T06:54:23.062Z,15.80
2023-01-05T06:56:49.971Z,16.35
2023-01-05T06:59:16.806Z,17.85
2023-01-05T07:01:44.005Z,16.48
2023-01-05T07:04:10.981Z,16.88
2023-01-05T07:06:37.888Z,14.48
2023-01-05T07:09:04.671Z,21.42
2023-01-05T07:11:31.902Z,19.35
2023-01-05T07:13:58.664Z,24.85
2023-01-05T07:16:25.658Z,21.88
2023-01-05T07:18:52.532Z,28.02
2023-01-05T07:21:19.425Z,26.65
2023-01-05T07:23:46.412Z,27.75
2023-01-05T07:26:13.631Z,27.65
2023-01-05T07:28:40.578Z,27.83
2023-01-05T07:31:07.793Z,24.67
2023-01-05T07:33:40.022Z,31.98
2023-01-05T07:36:09.012Z,31.83
2023-01-05T07:38:35.855Z,28.90
2023-01-05T07:41:03.682Z,27.17
2023-01-05T07:43:30.801Z,28.15
2023-01-05T07:46:02.125Z,28.63
2023-01-05T07:48:29.268Z,29.77
2023-01-05T07:51:03.456Z,29.05
2023-01-05T07:53:31.287Z,24.30
2023-01-05T07:56:00.232Z,28.95
2023-01-05T07:58:28.650Z,25.80
2023-01-05T08:00:56.540Z,26.73
2023-01-05T08:03:23.873Z,22.10
2023-01-05T08:05:50.956Z,20.67
2023-01-05T08:08:24.163Z,18.33
2023-01-05T08:10:51.618Z,16.65
2023-01-05T08:13:37.226Z,16.83
2023-01-05T08:16:04.663Z,18.33
2023-01-05T08:18:31.564Z,16.25
2023-01-05T08:21:01.027Z,18.13
2023-01-05T08:23:31.059Z,16.88
2023-01-05T08:26:03.005Z,16.88
2023-01-05T08:28:35.596Z,16.58
2023-01-05T08:31:08.724Z,13.95
2023-01-05T08:33:35.569Z,14.13
2023-01-05T08:36:02.741Z,15.40
2023-01-05T08:38:29.906Z,17.23
2023-01-05T08:40:59.967Z,15.40
2023-01-05T08:43:27.229Z,15.18
2023-01-05T08:45:54.356Z,16.23
2023-01-05T08:48:23.843Z,18.88
2023-01-05T08:50:50.853Z,16.25
2023-01-05T08:53:17.957Z,21.25
2023-01-05T08:55:44.933Z,22.77
2023-01-05T08:58:14.677Z,22.85
2023-01-05T09:00:41.754Z,21.88
2023-01-05T09:03:09.737Z,21.77
2023-01-05T09:05:36.630Z,21.90
2023-01-05T09:08:05.023Z,20.85
2023-01-05T09:10:31.906Z,22.95
2023-01-05T09:12:59.215Z,23.05
2023-01-05T09:15:28.557Z,27.67
2023-01-05T09:17:55.491Z,30.13
2023-01-05T09:20:22.503Z,25.92
2023-01-05T09:22:49.451Z,26.42
2023-01-05T09:25:16.354Z,27.20
2023-01-05T09:27:43.318Z,25.67
2023-01-05T09:30:10.927Z,29.52
2023-01-05T09:32:37.850Z,27.38
2023-01-05T09:35:05.127Z,16.83
2023-01-05T09:37:31.941Z,18.30
2023-01-05T09:39:58.822Z,17.23
2023-01-05T09:42:27.636Z,15.18
2023-01-05T09:44:59.296Z,14.38
2023-01-05T09:47:38.985Z,17.60
2023-01-05T09:50:09.332Z,15.50
2023-01-05T09:52:38.527Z,16.85
2023-01-05T09:55:19.943Z,14.00
2023-01-05T09:57:51.333Z,13.20
2023-01-05T10:00:18.835Z,15.75
2023-01-05T10:02:59.532Z,14.43
2023-01-05T10:05:27.163Z,18.10
2023-01-05T10:07:58.053Z,16.70
2023-01-05T10:11:14.890Z,14.00
2023-01-05T10:13:51.659Z,17.23
2023-01-05T10:16:18.581Z,16.90
2023-01-05T10:18:45.950Z,14.65
2023-01-05T10:21:25.966Z,13.68
2023-01-05T10:24:30.543Z,13.93
2023-01-05T10:27:25.576Z,17.05
2023-01-05T10:30:26.388Z,12.63
2023-01-05T10:36:05.297Z,16.75
2023-01-05T10:39:12.786Z,16.17
2023-01-05T10:41:59.449Z,13.55
2023-01-05T10:44:41.497Z,14.80
2023-01-05T10:47:09.984Z,16.38
2023-01-05T10:49:37.339Z,19.05
2023-01-05T10:52:06.107Z,14.77
2023-01-05T10:54:38.169Z,12.52
2023-01-05T10:57:35.742Z,11.82
2023-01-05T11:00:19.875Z,13.68
2023-01-05T11:02:59.861Z,16.85
2023-01-05T11:05:35.199Z,12.82
2023-01-05T11:08:07.743Z,15.00
2023-01-05T11:10:36.810Z,17.08
2023-01-05T11:13:16.511Z,16.15
2023-01-05T11:15:48.297Z,15.80
2023-01-05T11:18:36.069Z,16.30
2023-01-05T11:21:25.985Z,15.10
2023-01-05T11:23:54.948Z,17.17
2023-01-05T11:26:21.713Z,11.23
2023-01-05T11:29:17.432Z,14.85
2023-01-05T11:31:59.013Z,14.88
2023-01-05T11:34:27.305Z,13.68
2023-01-05T11:37:07.670Z,15.88
2023-01-05T11:39:47.106Z,13.75
2023-01-05T11:42:24.896Z,16.30
2023-01-05T11:44:58.510Z,15.38
2023-01-05T11:47:49.419Z,13.20
2023-01-05T11:50:22.282Z,12.68
2023-01-05T11:52:51.267Z,13.98
2023-01-05T11:55:24.013Z,14.20
2023-01-05T11:57:59.425Z,15.05
2023-01-05T12:00:54.401Z,13.82
2023-01-05T12:03:58.818Z,13.77
2023-01-05T12:06:54.280Z,15.40
2023-01-05T12:09:35.696Z,15.32
2023-01-05T12:12:21.828Z,13.40
2023-01-05T12:15:00.769Z,12.63
2023-01-05T12:17:48.787Z,13.88
2023-01-05T12:20:27.689Z,12.95
2023-01-05T12:23:42.136Z,13.00
2023-01-05T12:26:29.204Z,11.13
2023-01-05T12:35:51.513Z,15.25
2023-01-05T12:38:25.313Z,18.00
2023-01-05T12:41:11.013Z,15.95
2023-01-05T12:44:11.815Z,16.27
2023-01-05T12:46:47.836Z,18.48
2023-01-05T12:49:22.112Z,15.18
2023-01-05T12:52:15.991Z,19.85
2023-01-05T12:57:16.685Z,15.75
2023-01-05T13:00:07.022Z,16.95
2023-01-05T13:02:42.777Z,15.45
2023-01-05T13:05:18.983Z,14.05
2023-01-05T13:08:01.127Z,12.88
2023-01-05T13:10:34.106Z,12.40
2023-01-05T13:13:08.432Z,12.75
2023-01-05T13:15:49.171Z,11.90
2023-01-05T13:18:18.043Z,12.65
2023-01-05T13:21:02.640Z,12.13
2023-01-05T13:23:37.662Z,14.57
2023-01-05T13:26:07.070Z,12.07
2023-01-05T13:28:35.152Z,12.20
2023-01-05T13:31:24.155Z,13.35
2023-01-05T13:34:06.512Z,11.93
2023-01-05T13:37:04.601Z,21.75
2023-01-05T13:39:54.445Z,26.63
2023-01-05T13:42:26.734Z,23.45
2023-01-05T13:45:05.961Z,20.38
2023-01-05T13:47:35.299Z,16.38
2023-01-05T13:50:38.386Z,18.83
2023-01-05T13:53:18.393Z,14.07
2023-01-05T13:55:51.781Z,12.65
2023-01-05T13:58:34.904Z,12.32
2023-01-05T14:01:05.069Z,13.45
2023-01-05T14:03:36.967Z,11.75
2023-01-05T14:06:08.846Z,11.45
2023-01-05T14:08:39.819Z,19.42
2023-01-05T14:11:09.119Z,17.42
2023-01-05T14:13:48.224Z,16.08
2023-01-05T14:16:33.595Z,11.32
2023-01-05T14:19:18.968Z,18.50
2023-01-05T14:21:51.263Z,16.42
2023-01-05T14:24:47.944Z,17.45
2023-01-05T14:27:20.789Z,19.70
2023-01-05T14:29:53.844Z,37.05
2023-01-05T14:32:30.166Z,31.10
2023-01-05T14:35:02.980Z,13.90
2023-01-05T14:37:38.148Z,16.60
2023-01-05T14:40:23.729Z,18.92
2023-01-05T14:42:51.051Z,21.10
2023-01-05T14:45:27.837Z,22.95
2023-01-05T14:47:57.567Z,19.27
2023-01-05T14:50:34.854Z,16.55
2023-01-05T14:53:17.179Z,14.60
2023-01-05T14:55:56.017Z,25.00
2023-01-05T14:58:38.482Z,19.67
2023-01-05T15:01:17.842Z,14.93
2023-01-05T15:03:52.425Z,14.07
2023-01-05T15:06:25.648Z,13.25
2023-01-05T15:09:10.015Z,19.45
2023-01-05T15:11:59.209Z,18.80
2023-01-05T15:14:33.075Z,15.38
2023-01-05T15:17:31.063Z,15.85
2023-01-05T15:20:49.313Z,13.75
2023-01-05T15:26:22.442Z,23.02
2023-01-05T15:29:27.461Z,17.52
2023-01-05T15:32:01.451Z,13.93
2023-01-05T15:34:40.687Z,12.32
2023-01-05T15:37:25.919Z,14.10
2023-01-05T15:39:56.482Z,14.70
2023-01-05T15:42:32.868Z,19.70
2023-01-05T15:45:01.123Z,14.07
2023-01-05T15:47:29.898Z,12.13
2023-01-05T15:50:00.215Z,15.07
2023-01-05T15:52:32.723Z,18.65
2023-01-05T15:55:23.237Z,16.83
2023-01-05T15:57:59.348Z,21.92
2023-01-05T16:00:29.342Z,19.90
2023-01-05T16:02:56.520Z,31.80
2023-01-05T16:05:28.414Z,28.02
2023-01-05T16:07:58.649Z,27.40
2023-01-05T16:10:35.862Z,20.33
2023-01-05T16:13:28.812Z,22.52
2023-01-05T16:15:57.977Z,23.77
2023-01-05T16:18:29.023Z,26.90
2023-01-05T16:20:56.945Z,18.52
2023-01-05T16:23:40.881Z,16.95
2023-01-05T16:26:16.953Z,22.58
2023-01-05T16:28:45.103Z,15.73
2023-01-05T16:31:14.298Z,19.23
2023-01-05T16:33:41.652Z,16.10
2023-01-05T16:36:22.509Z,15.35
2023-01-05T16:38:53.148Z,18.15
2023-01-05T16:41:26.476Z,14.98
2023-01-05T16:43:59.492Z,20.63
2023-01-05T16:46:32.278Z,20.00
2023-01-05T16:49:07.472Z,19.85
2023-01-05T16:54:28.930Z,17.23
2023-01-05T16:56:59.377Z,23.83
2023-01-05T17:00:01.004Z,20.30
2023-01-05T17:02:41.148Z,14.70
2023-01-05T17:05:08.544Z,21.55
2023-01-05T17:07:41.518Z,14.40
2023-01-05T17:10:18.881Z,17.58
2023-01-05T17:12:56.803Z,15.80
2023-01-05T17:15:29.556Z,17.25
2023-01-05T17:17:57.208Z,19.83
2023-01-05T17:20:26.841Z,17.98
2023-01-05T17:22:56.761Z,18.55
2023-01-05T17:25:26.636Z,14.63
2023-01-05T17:27:53.754Z,15.30
2023-01-05T17:30:21.791Z,13.40
2023-01-05T17:32:49.080Z,20.83
2023-01-05T17:35:18.687Z,23.20
2023-01-05T17:37:47.274Z,23.13
2023-01-05T17:40:21.121Z,18.38
2023-01-05T17:42:50.790Z,14.45
2023-01-05T17:45:21.476Z,21.42
2023-01-05T17:47:51.531Z,21.70
2023-01-05T17:50:28.714Z,20.23
2023-01-05T17:53:00.179Z,16.33
2023-01-05T17:55:34.624Z,21.35
2023-01-05T17:58:07.208Z,26.23
2023-01-05T18:00:41.921Z,30.95
2023-01-05T18:03:10.394Z,20.38
2023-01-05T18:05:37.592Z,20.77
2023-01-05T18:10:33.150Z,19.42
2023-01-05T18:13:00.245Z,25.15
2023-01-05T18:18:04.362Z,19.75
2023-01-05T18:20:31.775Z,20.80
2023-01-05T18:22:58.929Z,18.75
2023-01-05T18:25:26.226Z,20.42
2023-01-05T18:27:53.275Z,17.90
2023-01-05T18:30:20.563Z,22.02
2023-01-05T18:32:47.649Z,18.25
2023-01-05T18:35:15.071Z,18.83
2023-01-05T18:37:42.079Z,18.42
2023-01-05T18:40:10.369Z,21.55
2023-01-05T18:42:38.062Z,24.73
2023-01-05T18:45:18.741Z,17.25
2023-01-05T18:47:56.750Z,24.00
2023-01-05T18:50:24.593Z,23.90
2023-01-05T18:52:51.764Z,19.42
2023-01-05T18:55:18.829Z,21.15
2023-01-05T18:57:45.729Z,25.35
2023-01-05T19:00:13.467Z,24.73
2023-01-05T19:02:40.863Z,25.80
2023-01-05T19:05:09.153Z,23.63
2023-01-05T19:07:36.773Z,21.73
2023-01-05T19:10:03.846Z,24.33
2023-01-05T19:12:30.861Z,18.60
2023-01-05T19:14:57.859Z,20.88
2023-01-05T19:17:24.828Z,18.67
2023-01-05T19:19:51.776Z,18.15
2023-01-05T19:22:18.699Z,16.92
2023-01-05T19:24:46.966Z,20.48
2023-01-05T19:27:13.880Z,21.20
2023-01-05T19:29:42.267Z,18.60
2023-01-05T19:32:09.326Z,17.70
2023-01-05T19:34:38.340Z,16.73
2023-01-05T19:37:06.530Z,18.67
2023-01-05T19:39:33.651Z,25.52
2023-01-05T19:42:00.801Z,20.20
2023-01-05T19:44:28.031Z,18.63
2023-01-05T19:46:58.284Z,16.00
2023-01-05T19:49:26.841Z,13.63
2023-01-05T19:51:56.925Z,19.05
2023-01-05T19:54:25.577Z,19.35
2023-01-05T19:56:54.983Z,19.25
2023-01-05T19:59:33.408Z,17.38
2023-01-05T20:02:01.982Z,14.95
2023-01-05T20:04:29.982Z,16.25
2023-01-05T20:06:57.611Z,21.38
2023-01-05T20:09:24.861Z,15.00
2023-01-05T20:12:05.746Z,14.80
2023-01-05T20:14:40.289Z,16.75
2023-01-05T20:17:11.731Z,13.43
2023-01-05T20:19:39.557Z,11.63
2023-01-05T20:22:08.055Z,15.82
2023-01-05T20:24:36.917Z,15.63
2023-01-05T20:27:25.718Z,11.95
2023-01-05T20:30:23.348Z,8.32
2023-01-05T20:32:52.802Z,12.82
2023-01-05T20:35:19.944Z,14.18
2023-01-05T20:37:46.877Z,15.00
2023-01-05T20:40:15.034Z,16.60
2023-01-05T20:45:26.226Z,13.75
2023-01-05T20:47:53.273Z,15.55
2023-01-05T20:50:20.312Z,16.08
2023-01-05T20:52:47.367Z,16.80
2023-01-05T20:55:17.845Z,16.15
2023-01-05T20:57:45.735Z,24.90
2023-01-05T21:00:14.799Z,15.77
2023-01-05T21:02:41.986Z,13.93
2023-01-05T21:05:10.840Z,15.60
2023-01-05T21:07:39.994Z,18.15
2023-01-05T21:10:08.413Z,13.38
2023-01-05T21:12:35.418Z,15.98
2023-01-05T21:15:03.756Z,12.68
2023-01-05T21:17:30.840Z,13.90
2023-01-05T21:19:58.510Z,15.50
2023-01-05T21:22:25.612Z,18.25
2023-01-05T21:24:52.641Z,15.02
2023-01-05T21:27:19.767Z,18.35
2023-01-05T21:29:46.716Z,18.48
2023-01-05T21:32:13.754Z,19.67
2023-01-05T21:34:40.839Z,17.48
2023-01-05T21:37:07.877Z,15.85
2023-01-05T21:39:37.691Z,17.80
2023-01-05T21:42:23.109Z,17.58
2023-01-05T21:44:49.943Z,16.85
2023-01-05T21:47:17.055Z,19.92
2023-01-05T21:49:43.957Z,14.25
2023-01-05T21:52:39.188Z,14.35
2023-01-05T21:55:32.770Z,5.50
2023-01-05T21:58:00.012Z,11.88
2023-01-05T22:00:27.633Z,12.90
2023-01-05T22:02:54.681Z,8.68
2023-01-05T22:05:24.493Z,8.98
2023-01-05T22:07:51.912Z,6.32
2023-01-05T22:10:18.957Z,2.67
2023-01-05T22:12:46.018Z,1.73
2023-01-05T22:15:13.020Z,2.13
2023-01-05T22:17:40.395Z,2.95
2023-01-05T22:20:08.200Z,4.82
2023-01-05T22:22:35.263Z,1.98
2023-01-05T22:25:02.400Z,2.47
2023-01-05T22:27:29.596Z,5.22
2023-01-05T22:29:56.717Z,6.20
2023-01-05T22:32:23.738Z,2.15
2023-01-05T22:34:53.241Z,4.10
2023-01-05T22:37:20.539Z,2.75
2023-01-05T22:39:49.555Z,4.85
2023-01-05T22:42:16.606Z,2.25
2023-01-05T22:44:43.606Z,3.30
2023-01-05T22:47:11.868Z,2.95
2023-01-05T22:49:38.985Z,3.10
2023-01-05T22:52:06.243Z,2.90
2023-01-05T22:54:33.917Z,5.45
2023-01-05T22:57:00.988Z,7.22
2023-01-05T22:59:31.037Z,2.35
2023-01-05T23:01:58.164Z,4.20
2023-01-05T23:04:27.630Z,1.63
2023-01-05T23:06:57.084Z,2.92
2023-01-05T23:09:26.443Z,3.95
2023-01-05T23:11:53.539Z,3.55
2023-01-05T23:14:20.563Z,4.45
2023-01-05T23:16:48.027Z,3.60
2023-01-05T23:19:17.114Z,4.45
2023-01-05T23:21:46.346Z,3.35
2023-01-05T23:24:15.793Z,3.83
2023-01-05T23:26:43.765Z,4.70
2023-01-05T23:29:10.947Z,4.22
2023-01-05T23:31:37.967Z,4.80
2023-01-05T23:34:05.059Z,3.13
2023-01-05T23:36:34.287Z,4.07
2023-01-05T23:39:01.535Z,6.43
2023-01-05T23:41:28.636Z,5.03
2023-01-05T23:43:58.385Z,4.13
2023-01-05T23:46:25.650Z,4.35
2023-01-05T23:48:52.783Z,3.70
2023-01-05T23:51:20.020Z,4.95
2023-01-05T23:53:52.221Z,3.95
2023-01-05T23:56:24.580Z,4.45
2023-01-05T23:59:00.495Z,4.43
